Time;durP1;ratioP1;P1;durP2;ratioP2;P2;SDS_P1;SDS_P2;PMS_P1;PMS_P2;Temp;Humidity;BMP_temperature;BMP_pressure;BME280_temperature;BME280_humidity;BME280_pressure;Samples;Min_cycle;Max_cycle;Signal;HPM_P1;HPM_P2
2021/05/15 00:02:35;;;;;;;;;;;;;;;21.02;57.03;100922.28;5133028;27;1044;-78
2021/05/15 00:05:19;;;;;;;;;;;;;;;21.01;57.07;100922.38;5117289;27;1260;-79
2021/05/15 00:08:05;;;;;;;;;;;;;;;21.00;57.25;100921.53;5133229;27;1073;-79
2021/05/15 00:10:49;;;;;;;;;;;;;;;21.01;56.98;100919.72;5133113;27;1271;-78
2021/05/15 00:13:33;;;;;;;;;;;;;;;21.00;57.34;100904.78;5117250;27;1072;-78
2021/05/15 00:16:19;;;;;;;;;;;;;;;21.00;57.20;100900.34;5133090;27;1235;-78
2021/05/15 00:19:03;;;;;;;;;;;;;;;21.00;57.38;100905.66;5131953;27;1041;-78
2021/05/15 00:21:47;;;;;;;;;;;;;;;21.01;57.14;100909.97;5131629;27;1882;-78
2021/05/15 00:24:31;;;;;;;;;;;;;;;21.00;57.13;100913.59;5116543;27;619;-77
2021/05/15 00:27:15;;;;;;;;;;;;;;;21.00;57.28;100899.50;5132093;27;1280;-78
2021/05/15 00:29:59;;;;;;;;;;;;;;;20.98;57.25;100899.56;5116387;27;1259;-78
2021/05/15 00:32:44;;;;;;;;;;;;;;;21.00;57.38;100899.50;5131978;27;951;-78
2021/05/15 00:35:28;;;;;;;;;;;;;;;20.98;57.40;100894.28;5132826;27;1275;-77
2021/05/15 00:38:12;;;;;;;;;;;;;;;20.98;57.34;100896.06;5117445;27;1074;-78
2021/05/15 00:40:56;;;;;;;;;;;;;;;20.97;57.28;100897.91;5132277;27;1910;-78
2021/05/15 00:43:46;;;;;;;;;;;;;;;20.96;57.43;100892.69;5132355;27;1055;-79
2021/05/15 00:46:30;;;;;;;;;;;;;;;20.96;57.41;100890.03;5132318;27;1263;-79
2021/05/15 00:49:14;;;;;;;;;;;;;;;20.95;57.64;100877.72;5108746;28;1613;-78
2021/05/15 00:51:58;;;;;;;;;;;;;;;20.94;57.69;100871.63;5111583;28;1264;-78
2021/05/15 00:54:42;;;;;;;;;;;;;;;20.94;57.63;100860.16;5095611;28;709;-78
2021/05/15 00:57:26;;;;;;;;;;;;;;;20.95;57.57;100840.66;5111514;28;1054;-78
2021/05/15 01:00:14;;;;;;;;;;;;;;;20.94;57.63;100845.13;5095113;28;2335;-78
2021/05/15 01:02:58;;;;;;;;;;;;;;;20.93;57.69;100839.91;5095863;28;954;-78
2021/05/15 01:05:42;;;;;;;;;;;;;;;20.93;57.68;100839.91;5110204;28;1276;-78
2021/05/15 01:08:27;;;;;;;;;;;;;;;20.95;57.87;100838.00;5111106;28;1072;-79
2021/05/15 01:11:15;;;;;;;;;;;;;;;20.92;57.63;100836.41;5111287;28;1267;-79
2021/05/15 01:14:00;;;;;;;;;;;;;;;20.92;57.73;100831.13;5111371;28;1021;-79
2021/05/15 01:16:44;;;;;;;;;;;;;;;20.91;57.60;100834.75;5095493;28;1296;-78
2021/05/15 01:19:28;;;;;;;;;;;;;;;20.90;57.70;100835.69;5095816;28;655;-78
2021/05/15 01:22:14;;;;;;;;;;;;;;;20.92;57.75;100852.31;5110541;28;1378;-78
2021/05/15 01:24:58;;;;;;;;;;;;;;;20.93;57.79;100854.00;5095381;28;1283;-78
2021/05/15 01:27:42;;;;;;;;;;;;;;;20.90;58.06;100850.72;5110655;28;1067;-77
2021/05/15 01:30:26;;;;;;;;;;;;;;;20.88;57.79;100848.19;5110959;28;1350;-77
2021/05/15 01:33:10;;;;;;;;;;;;;;;20.89;58.11;100841.91;5110913;28;1176;-78
2021/05/15 01:35:55;;;;;;;;;;;;;;;20.89;57.92;100844.56;5110353;28;1279;-78
2021/05/15 01:38:39;;;;;;;;;;;;;;;20.91;57.98;100836.53;5110823;28;1107;-78
2021/05/15 01:41:22;;;;;;;;;;;;;;;20.89;57.83;100831.31;5098274;28;1913;-79
2021/05/15 01:44:07;;;;;;;;;;;;;;;20.88;58.02;100834.09;5121908;28;1090;-80
2021/05/15 01:46:51;;;;;;;;;;;;;;;20.89;58.27;100831.31;5120019;28;1335;-80
2021/05/15 01:49:35;;;;;;;;;;;;;;;20.89;57.83;100831.31;5113356;27;1203;-80
2021/05/15 01:52:19;;;;;;;;;;;;;;;20.89;58.01;100826.03;5115133;27;1377;-79
2021/05/15 01:55:09;;;;;;;;;;;;;;;20.89;58.07;100827.81;5144269;27;1319;-78
2021/05/15 01:57:53;;;;;;;;;;;;;;;20.89;57.94;100818.09;5126909;27;1674;-77
2021/05/15 02:00:37;;;;;;;;;;;;;;;20.88;57.83;100818.19;5139772;27;1910;-78
2021/05/15 02:03:22;;;;;;;;;;;;;;;20.88;58.01;100805.81;5134288;27;1094;-81
2021/05/15 02:06:06;;;;;;;;;;;;;;;20.88;58.00;100807.59;5140526;27;1357;-79
2021/05/15 02:08:50;;;;;;;;;;;;;;;20.88;58.18;100808.47;5122396;27;1218;-79
2021/05/15 02:11:35;;;;;;;;;;;;;;;20.88;58.11;100813.75;5136001;27;1380;-80
2021/05/15 02:14:19;;;;;;;;;;;;;;;20.88;58.40;100812.91;5152812;27;643;-80
2021/05/15 02:17:04;;;;;;;;;;;;;;;20.85;58.32;100800.72;5141671;27;1259;-79
2021/05/15 02:19:47;;;;;;;;;;;;;;;20.88;58.34;100802.31;5117092;27;1969;-79
2021/05/15 02:22:31;;;;;;;;;;;;;;;20.85;58.48;100803.38;5115484;27;1156;-79
2021/05/15 02:25:16;;;;;;;;;;;;;;;20.87;58.22;100803.25;5130384;27;1273;-80
2021/05/15 02:27:59;;;;;;;;;;;;;;;20.85;58.29;100798.06;5130211;27;953;-78
2021/05/15 02:30:44;;;;;;;;;;;;;;;20.84;58.33;100798.16;5131022;27;1272;-78
2021/05/15 02:33:28;;;;;;;;;;;;;;;20.85;58.33;100786.63;5114935;27;1154;-78
2021/05/15 02:36:12;;;;;;;;;;;;;;;20.84;58.31;100792.84;5114839;28;1252;-79
2021/05/15 02:38:57;;;;;;;;;;;;;;;20.85;58.34;100794.56;5115421;28;1048;-80
2021/05/15 02:41:41;;;;;;;;;;;;;;;20.84;58.31;100801.66;5130864;28;1902;-79
2021/05/15 02:44:25;;;;;;;;;;;;;;;20.85;58.39;100803.38;5130587;28;733;-80
2021/05/15 02:47:09;;;;;;;;;;;;;;;20.82;58.59;100789.47;5114888;28;1287;-80
2021/05/15 02:49:53;;;;;;;;;;;;;;;20.83;58.32;100791.16;5131600;28;1606;-79
2021/05/15 02:52:37;;;;;;;;;;;;;;;20.79;58.36;100787.03;5134745;28;1113;-78
2021/05/15 02:55:23;;;;;;;;;;;;;;;20.80;58.71;100789.56;5138468;27;1305;-79
2021/05/15 02:58:07;;;;;;;;;;;;;;;20.79;58.43;100793.16;5122635;27;1012;-79
2021/05/15 03:00:52;;;;;;;;;;;;;;;20.79;58.46;100790.53;5121343;27;1945;-79
2021/05/15 03:03:35;;;;;;;;;;;;;;;20.78;58.37;100778.22;5134548;27;1111;-80
2021/05/15 03:06:20;;;;;;;;;;;;;;;20.77;58.31;100773.88;5134027;27;1256;-79
2021/05/15 03:09:04;;;;;;;;;;;;;;;20.79;58.22;100765.84;5134680;27;983;-79
2021/05/15 03:11:48;;;;;;;;;;;;;;;20.77;58.13;100760.63;5133742;27;1248;-79
2021/05/15 03:14:32;;;;;;;;;;;;;;;20.77;58.12;100750.03;5133290;27;643;-79
2021/05/15 03:17:16;;;;;;;;;;;;;;;20.75;58.30;100741.38;5118342;27;1253;-78
2021/05/15 03:20:00;;;;;;;;;;;;;;;20.78;58.16;100746.47;5138468;27;1918;-78
2021/05/15 03:22:44;;;;;;;;;;;;;;;20.75;58.00;100757.25;5138051;27;952;-79
2021/05/15 03:25:28;;;;;;;;;;;;;;;20.75;58.27;100749.31;5137298;27;1280;-77
2021/05/15 03:28:12;;;;;;;;;;;;;;;20.75;58.14;100748.44;5136008;27;1064;-78
2021/05/15 03:30:56;;;;;;;;;;;;;;;20.75;58.12;100746.66;5118437;27;1279;-79
2021/05/15 03:33:43;;;;;;;;;;;;;;;20.75;58.02;100744.00;5118854;27;966;-78
2021/05/15 03:36:27;;;;;;;;;;;;;;;20.74;58.11;100739.66;5135273;27;1298;-79
2021/05/15 03:39:17;;;;;;;;;;;;;;;20.75;58.18;100732.56;5119945;27;963;-78
2021/05/15 03:42:18;;;;;;;;;;;;;;;20.73;58.24;100729.19;5137815;27;1963;-78
2021/05/15 03:45:03;;;;;;;;;;;;;;;20.73;58.19;100730.03;5137658;27;1263;-79
2021/05/15 03:47:47;;;;;;;;;;;;;;;20.72;58.15;100733.63;5139381;27;695;-79
2021/05/15 03:50:34;;;;;;;;;;;;;;;20.72;58.31;100736.28;5138378;27;1273;-78
2021/05/15 03:53:18;;;;;;;;;;;;;;;20.71;58.17;100740.72;5135220;27;663;-78
2021/05/15 03:56:02;;;;;;;;;;;;;;;20.71;58.07;100732.78;5133875;27;1316;-78
2021/05/15 03:58:46;;;;;;;;;;;;;;;20.71;58.26;100734.56;5133409;27;611;-79
2021/05/15 04:01:36;;;;;;;;;;;;;;;20.70;58.42;100732.88;5135596;27;1905;-79
2021/05/15 04:04:21;;;;;;;;;;;;;;;20.69;58.33;100729.38;5132759;27;720;-78
2021/05/15 04:07:04;;;;;;;;;;;;;;;20.70;58.47;100731.06;5131896;27;1291;-76
2021/05/15 04:09:48;;;;;;;;;;;;;;;20.70;58.31;100735.53;5132942;27;1130;-79
2021/05/15 04:12:35;;;;;;;;;;;;;;;20.71;58.12;100739.84;5133430;27;702;-78
2021/05/15 04:15:42;;;;;;;;;;;;;;;20.68;58.20;100742.69;5117141;27;1235;-78
2021/05/15 04:18:30;;;;;;;;;;;;;;;20.69;58.33;100752.34;5133527;27;1128;-78
2021/05/15 04:21:14;;;;;;;;;;;;;;;20.69;58.24;100742.63;5133418;27;1910;-78
2021/05/15 04:23:58;;;;;;;;;;;;;;;20.71;58.34;100747.78;5120126;27;1083;-76
2021/05/15 04:26:42;;;;;;;;;;;;;;;20.69;58.28;100747.06;5117838;27;1247;-77
2021/05/15 04:29:36;;;;;;;;;;;;;;;20.69;58.27;100757.66;5139947;27;1088;-78
2021/05/15 04:32:26;;;;;;;;;;;;;;;20.69;58.33;100753.19;5135507;27;644;-80
2021/05/15 04:35:10;;;;;;;;;;;;;;;20.69;58.30;100750.56;5132575;27;1275;-79
2021/05/15 04:37:54;;;;;;;;;;;;;;;20.70;58.27;100751.41;5137858;27;1024;-80
2021/05/15 04:40:38;;;;;;;;;;;;;;;20.70;58.58;100759.34;5134724;27;1976;-79
2021/05/15 04:43:22;;;;;;;;;;;;;;;20.71;58.38;100779.56;5134721;27;931;-78
2021/05/15 04:46:07;;;;;;;;;;;;;;;20.69;58.66;100782.31;5132442;27;1373;-77
2021/05/15 04:48:51;;;;;;;;;;;;;;;20.69;58.60;100765.59;5133576;27;1194;-76
2021/05/15 04:51:35;;;;;;;;;;;;;;;20.69;58.66;100779.69;5132856;27;1360;-77
2021/05/15 04:54:22;;;;;;;;;;;;;;;20.69;58.51;100781.47;5119054;27;1434;-79
2021/05/15 04:57:06;;;;;;;;;;;;;;;20.69;58.53;100776.16;5134043;27;1283;-80
2021/05/15 04:59:50;;;;;;;;;;;;;;;20.68;58.99;100774.47;5133252;27;1902;-77
2021/05/15 05:02:34;;;;;;;;;;;;;;;20.72;58.48;100765.38;5142624;27;1370;-78
2021/05/15 05:05:18;;;;;;;;;;;;;;;20.76;58.83;100771.34;5114772;27;1192;-74
2021/05/15 05:08:03;;;;;;;;;;;;;;;20.75;58.62;100778.44;5129926;27;926;-74
2021/05/15 05:10:47;;;;;;;;;;;;;;;20.75;58.68;100777.56;5130229;27;1283;-73
2021/05/15 05:13:31;;;;;;;;;;;;;;;20.74;58.50;100768.78;5114544;27;1138;-74
2021/05/15 05:16:15;;;;;;;;;;;;;;;20.73;58.59;100748.56;5130083;27;1394;-73
2021/05/15 05:18:59;;;;;;;;;;;;;;;20.74;58.82;100760.84;5134978;27;1055;-78
2021/05/15 05:21:43;;;;;;;;;;;;;;;20.73;58.66;100756.50;5120358;27;1906;-73
2021/05/15 05:24:27;;;;;;;;;;;;;;;20.74;58.75;100752.88;5131794;27;1102;-74
2021/05/15 05:27:12;;;;;;;;;;;;;;;20.76;58.72;100747.50;5130239;27;1417;-73
2021/05/15 05:29:59;;;;;;;;;;;;;;;20.76;58.79;100750.16;5130221;27;1075;-72
2021/05/15 05:32:44;;;;;;;;;;;;;;;20.76;58.48;100745.72;5131289;27;1073;-72
2021/05/15 05:35:28;;;;;;;;;;;;;;;20.76;58.54;100747.50;5130761;27;1262;-74
2021/05/15 05:38:12;;;;;;;;;;;;;;;20.76;58.64;100744.88;5118900;27;1798;-68
2021/05/15 05:40:58;;;;;;;;;;;;;;;20.77;58.62;100735.94;5150099;27;1965;-69
2021/05/15 05:43:42;;;;;;;;;;;;;;;20.75;58.65;100738.72;5151261;27;1074;-70
2021/05/15 05:46:26;;;;;;;;;;;;;;;20.76;58.56;100735.13;5134782;27;1287;-71
2021/05/15 05:49:10;;;;;;;;;;;;;;;20.76;58.62;100740.44;5143739;27;1509;-72
2021/05/15 05:51:54;;;;;;;;;;;;;;;20.76;58.52;100742.22;5114661;27;1307;-75
2021/05/15 05:54:39;;;;;;;;;;;;;;;20.77;58.65;100744.75;5130422;27;1083;-75
2021/05/15 05:57:23;;;;;;;;;;;;;;;20.76;58.57;100745.72;5129867;27;777;-72
2021/05/15 06:00:08;;;;;;;;;;;;;;;20.76;58.65;100745.72;5132510;27;1905;-73
2021/05/15 06:02:52;;;;;;;;;;;;;;;20.78;58.62;100738.50;5139396;27;997;-72
2021/05/15 06:05:36;;;;;;;;;;;;;;;20.76;58.58;100740.44;5130174;27;1262;-72
2021/05/15 06:08:21;;;;;;;;;;;;;;;20.78;58.39;100743.81;5130725;27;923;-70
2021/05/15 06:11:06;;;;;;;;;;;;;;;20.78;58.47;100743.81;5129255;27;1268;-73
2021/05/15 06:13:50;;;;;;;;;;;;;;;20.77;58.46;100747.41;5130099;27;953;-73
2021/05/15 06:16:34;;;;;;;;;;;;;;;20.78;58.41;100735.88;5130247;27;1318;-73
2021/05/15 06:19:18;;;;;;;;;;;;;;;20.78;58.49;100738.50;5130084;27;1168;-72
2021/05/15 06:22:02;;;;;;;;;;;;;;;20.82;58.91;100733.88;5129811;27;1985;-70
2021/05/15 06:24:46;;;;;;;;;;;;;;;20.82;58.65;100725.94;5130332;27;1121;-69
2021/05/15 06:27:30;;;;;;;;;;;;;;;20.82;58.59;100718.84;5129740;27;631;-71
2021/05/15 06:30:14;;;;;;;;;;;;;;;20.84;58.60;100724.03;5128947;27;1366;-70
2021/05/15 06:32:58;;;;;;;;;;;;;;;20.84;58.56;100721.38;5129717;27;983;-67
2021/05/15 06:35:43;;;;;;;;;;;;;;;20.85;58.74;100728.38;5114068;28;1369;-70
2021/05/15 06:38:27;;;;;;;;;;;;;;;20.85;58.63;100718.63;5130056;28;1064;-71
2021/05/15 06:41:11;;;;;;;;;;;;;;;20.85;58.69;100712.50;5129835;28;1898;-71
2021/05/15 06:43:55;;;;;;;;;;;;;;;20.85;58.94;100718.63;5129578;28;1170;-71
2021/05/15 06:46:39;;;;;;;;;;;;;;;20.85;58.69;100713.34;5130021;28;1141;-71
2021/05/15 06:49:23;;;;;;;;;;;;;;;20.88;59.04;100702.56;5129227;28;1368;-71
2021/05/15 06:52:07;;;;;;;;;;;;;;;20.88;58.82;100694.59;5129883;28;1369;-70
2021/05/15 06:54:50;;;;;;;;;;;;;;;20.87;58.64;100694.69;5129988;28;1064;-72
2021/05/15 06:57:34;;;;;;;;;;;;;;;20.87;58.73;100706.13;5113714;28;718;-70
2021/05/15 07:00:19;;;;;;;;;;;;;;;20.87;58.49;100706.13;5129462;28;1905;-70
2021/05/15 07:03:03;;;;;;;;;;;;;;;20.87;58.61;100711.44;5129341;28;970;-71
2021/05/15 07:05:47;;;;;;;;;;;;;;;20.88;58.89;100707.00;5129427;28;1258;-70
2021/05/15 07:08:31;;;;;;;;;;;;;;;20.87;58.71;100706.13;5129481;28;1050;-70
2021/05/15 07:11:15;;;;;;;;;;;;;;;20.87;58.58;100716.72;5113632;28;1373;-70
2021/05/15 07:13:59;;;;;;;;;;;;;;;20.91;58.98;100718.22;5140099;27;1567;-69
2021/05/15 07:16:43;;;;;;;;;;;;;;;20.91;58.94;100709.44;5128123;28;1353;-71
2021/05/15 07:19:27;;;;;;;;;;;;;;;20.92;58.72;100698.72;5113278;28;1045;-72
2021/05/15 07:22:11;;;;;;;;;;;;;;;20.93;58.67;100700.44;5128433;28;1961;-72
2021/05/15 07:24:56;;;;;;;;;;;;;;;20.94;58.77;100702.16;5113375;28;1063;-72
2021/05/15 07:27:40;;;;;;;;;;;;;;;20.93;58.48;100684.56;5128558;28;659;-75
2021/05/15 07:30:24;;;;;;;;;;;;;;;20.94;58.84;100677.47;5128195;28;1260;-71
2021/05/15 07:33:08;;;;;;;;;;;;;;;20.95;58.77;100680.00;5132125;27;1552;-70
2021/05/15 07:35:52;;;;;;;;;;;;;;;20.95;58.80;100676.50;5127589;28;1283;-72
2021/05/15 07:38:37;;;;;;;;;;;;;;;20.95;58.71;100681.78;5127913;28;1165;-72
2021/05/15 07:41:22;;;;;;;;;;;;;;;20.95;58.79;100676.50;5131163;27;1914;-71
2021/05/15 07:44:07;;;;;;;;;;;;;;;21.03;59.32;100676.84;5133348;27;1108;-70
2021/05/15 07:46:51;;;;;;;;;;;;;;;21.00;59.60;100677.91;5136366;27;1556;-71
2021/05/15 07:49:37;;;;;;;;;;;;;;;20.99;59.28;100667.41;5141057;27;1647;-72
2021/05/15 07:52:22;;;;;;;;;;;;;;;20.98;59.70;100666.53;5131803;27;655;-69
2021/05/15 07:55:06;;;;;;;;;;;;;;;20.97;59.17;100674.59;5131504;27;1251;-70
2021/05/15 07:57:50;;;;;;;;;;;;;;;20.98;59.13;100669.19;5131167;27;1068;-71
2021/05/15 08:00:34;;;;;;;;;;;;;;;20.99;59.07;100662.94;5131206;27;1976;-72
2021/05/15 08:03:18;;;;;;;;;;;;;;;20.99;58.30;100662.09;5123340;27;1762;-70
2021/05/15 08:06:02;;;;;;;;;;;;;;;20.99;58.35;100655.00;5129114;27;1338;-71
2021/05/15 08:08:46;;;;;;;;;;;;;;;20.98;57.65;100644.50;5114273;27;1072;-69
2021/05/15 08:11:32;;;;;;;;;;;;;;;20.92;57.92;100653.72;5129623;27;1288;-70
2021/05/15 08:14:16;;;;;;;;;;;;;;;20.90;57.85;100658.28;5129842;27;1082;-71
2021/05/15 08:17:00;;;;;;;;;;;;;;;20.85;57.65;100648.94;5130221;27;1358;-74
2021/05/15 08:19:44;;;;;;;;;;;;;;;20.88;57.47;100636.38;5143705;27;1742;-71
2021/05/15 08:22:28;;;;;;;;;;;;;;;20.92;57.87;100637.81;5151268;27;662;-74
2021/05/15 08:25:13;;;;;;;;;;;;;;;20.97;57.47;100643.69;5151862;27;1267;-76
2021/05/15 08:27:59;;;;;;;;;;;;;;;20.91;57.78;100652.03;5151930;27;932;-74
2021/05/15 08:30:43;;;;;;;;;;;;;;;20.90;57.33;100641.53;5151008;27;1308;-73
2021/05/15 08:33:27;;;;;;;;;;;;;;;21.01;57.24;100645.16;5135776;27;975;-74
2021/05/15 08:36:12;;;;;;;;;;;;;;;20.98;56.80;100637.41;5151315;27;1261;-71
2021/05/15 08:38:57;;;;;;;;;;;;;;;20.98;57.14;100633.91;5151776;27;1328;-73
2021/05/15 08:41:41;;;;;;;;;;;;;;;21.02;57.44;100636.25;5135199;27;1887;-73
2021/05/15 08:44:27;;;;;;;;;;;;;;;20.98;57.16;100645.34;5151757;27;1058;-71
2021/05/15 08:47:14;;;;;;;;;;;;;;;21.00;57.54;100643.47;5150856;27;1368;-72
2021/05/15 08:50:02;;;;;;;;;;;;;;;21.05;57.43;100619.31;5147947;27;1816;-72
2021/05/15 08:52:47;;;;;;;;;;;;;;;21.12;58.34;100618.84;5149268;27;1127;-67
2021/05/15 08:55:32;;;;;;;;;;;;;;;21.18;58.33;100620.22;5123547;27;1299;-73
2021/05/15 08:58:17;;;;;;;;;;;;;;;21.13;58.66;100620.50;5128274;27;1525;-74
2021/05/15 09:01:00;;;;;;;;;;;;;;;21.07;57.91;100618.25;5141707;27;1933;-75
2021/05/15 09:03:45;;;;;;;;;;;;;;;21.05;57.53;100617.50;5132785;27;1007;-75
2021/05/15 09:06:30;;;;;;;;;;;;;;;21.03;57.56;100611.50;5150911;27;1275;-74
2021/05/15 09:09:15;;;;;;;;;;;;;;;21.03;57.43;100614.13;5152320;27;1122;-75
2021/05/15 09:12:01;;;;;;;;;;;;;;;21.02;57.73;100608.94;5137536;27;1373;-74
2021/05/15 09:14:56;;;;;;;;;;;;;;;21.00;57.76;100594.94;5152307;27;1087;-75
2021/05/15 09:17:45;;;;;;;;;;;;;;;20.99;57.71;100601.19;5151598;27;642;-75
2021/05/15 09:20:35;;;;;;;;;;;;;;;20.98;57.88;100603.00;5151625;27;1898;-74
2021/05/15 09:23:20;;;;;;;;;;;;;;;20.97;58.42;100598.66;5151730;27;945;-74
2021/05/15 09:26:19;;;;;;;;;;;;;;;20.95;58.90;100592.59;5151456;27;1385;-75
2021/05/15 09:29:05;;;;;;;;;;;;;;;20.95;58.97;100608.50;5135346;27;1090;-75
2021/05/15 09:31:51;;;;;;;;;;;;;;;20.95;58.92;100608.50;5136018;27;1319;-75
2021/05/15 09:34:43;;;;;;;;;;;;;;;20.94;58.99;100598.88;5151231;27;1041;-75
2021/05/15 09:37:35;;;;;;;;;;;;;;;20.95;59.08;100597.06;5151944;27;694;-75
2021/05/15 09:40:22;;;;;;;;;;;;;;;20.94;59.26;100592.72;5151270;27;1960;-75
2021/05/15 09:43:25;;;;;;;;;;;;;;;20.94;59.29;100583.00;5150732;27;966;-73
2021/05/15 09:46:10;;;;;;;;;;;;;;;20.94;59.16;100593.56;5151105;27;1267;-73
2021/05/15 09:48:59;;;;;;;;;;;;;;;20.94;59.01;100595.38;5151335;27;1417;-74
2021/05/15 09:51:50;;;;;;;;;;;;;;;20.95;59.30;100605.84;5151041;27;1376;-75
2021/05/15 09:54:40;;;;;;;;;;;;;;;20.93;59.21;100599.81;5135593;27;1147;-74
2021/05/15 09:57:25;;;;;;;;;;;;;;;20.93;59.13;100598.97;5150845;27;714;-74
2021/05/15 10:00:11;;;;;;;;;;;;;;;20.94;59.11;100603.31;5135673;27;1373;-75
2021/05/15 10:02:56;;;;;;;;;;;;;;;20.93;58.96;100605.13;5134965;27;1114;-74
2021/05/15 10:05:42;;;;;;;;;;;;;;;20.93;59.24;100583.94;5134379;27;1314;-75
2021/05/15 10:08:27;;;;;;;;;;;;;;;20.94;59.39;100590.94;5120659;27;1049;-75
2021/05/15 10:11:13;;;;;;;;;;;;;;;20.93;59.19;100583.94;5150549;27;1285;-75
2021/05/15 10:13:58;;;;;;;;;;;;;;;20.94;59.42;100579.50;5150936;27;912;-75
2021/05/15 10:16:44;;;;;;;;;;;;;;;20.92;59.13;100571.63;5150554;27;1275;-75
2021/05/15 10:19:30;;;;;;;;;;;;;;;20.95;59.17;100578.50;5150961;27;1154;-74
2021/05/15 10:22:15;;;;;;;;;;;;;;;20.96;59.48;100577.56;5150576;27;1967;-75
2021/05/15 10:25:01;;;;;;;;;;;;;;;20.95;59.35;100579.38;5150973;27;1267;-75
2021/05/15 10:27:46;;;;;;;;;;;;;;;20.96;59.37;100582.88;5150496;27;1119;-76
2021/05/15 10:30:32;;;;;;;;;;;;;;;20.95;59.38;100581.16;5150801;27;1358;-75
2021/05/15 10:33:17;;;;;;;;;;;;;;;20.94;59.22;100580.34;5150473;27;984;-75
2021/05/15 10:36:04;;;;;;;;;;;;;;;20.95;59.27;100576.72;5150208;27;1242;-74
2021/05/15 10:38:50;;;;;;;;;;;;;;;20.95;59.57;100575.88;5134569;27;1062;-75
2021/05/15 10:41:43;;;;;;;;;;;;;;;20.95;59.24;100565.28;5134884;27;1905;-75
2021/05/15 10:44:39;;;;;;;;;;;;;;;20.96;59.38;100567.84;5134534;27;964;-75
2021/05/15 10:47:26;;;;;;;;;;;;;;;20.96;59.25;100564.34;5150096;27;654;-75
2021/05/15 10:50:15;;;;;;;;;;;;;;;20.94;59.40;100553.88;5150401;27;1666;-75
2021/05/15 10:53:00;;;;;;;;;;;;;;;20.95;59.43;100552.88;5134366;27;958;-75
2021/05/15 10:55:59;;;;;;;;;;;;;;;20.95;59.50;100555.53;5150674;27;1364;-75
2021/05/15 10:58:50;;;;;;;;;;;;;;;20.95;59.44;100542.28;5134455;27;1072;-75
2021/05/15 11:01:51;;;;;;;;;;;;;;;20.94;59.38;100537.97;5149846;27;1909;-76
2021/05/15 11:04:48;;;;;;;;;;;;;;;20.95;59.54;100530.84;5150561;27;1056;-76
2021/05/15 11:07:39;;;;;;;;;;;;;;;20.95;59.55;100518.47;5150152;27;722;-77
2021/05/15 11:10:34;;;;;;;;;;;;;;;20.96;59.57;100519.31;5150025;27;1205;-75
2021/05/15 11:13:19;;;;;;;;;;;;;;;20.95;59.44;100515.81;5134716;27;914;-76
2021/05/15 11:16:05;;;;;;;;;;;;;;;20.96;59.53;100521.97;5152744;27;1283;-75
2021/05/15 11:18:51;;;;;;;;;;;;;;;20.96;59.46;100519.31;5154435;27;1036;-76
2021/05/15 11:21:38;;;;;;;;;;;;;;;20.97;59.62;100516.59;5154664;27;1902;-76
2021/05/15 11:24:34;;;;;;;;;;;;;;;20.96;59.54;100514.88;5154410;27;983;-76
2021/05/15 11:27:19;;;;;;;;;;;;;;;20.96;59.59;100509.56;5138358;27;1256;-76
2021/05/15 11:30:13;;;;;;;;;;;;;;;20.97;59.79;100515.72;5154362;27;1258;-76
2021/05/15 11:33:03;;;;;;;;;;;;;;;20.97;59.35;100515.72;5138007;27;919;-76
2021/05/15 11:35:53;;;;;;;;;;;;;;;20.97;59.67;100511.28;5137891;27;1291;-76
2021/05/15 11:38:38;;;;;;;;;;;;;;;21.02;59.84;100518.88;5138092;27;1162;-75
2021/05/15 11:41:24;;;;;;;;;;;;;;;21.05;60.00;100518.69;5153416;27;1901;-68
2021/05/15 11:44:09;;;;;;;;;;;;;;;21.06;59.85;100518.59;5138966;27;1681;-72
2021/05/15 11:46:55;;;;;;;;;;;;;;;21.10;60.06;100509.47;5128453;27;1658;-72
2021/05/15 11:49:40;;;;;;;;;;;;;;;21.07;60.11;100500.88;5120277;27;1095;-73
2021/05/15 11:52:33;;;;;;;;;;;;;;;21.06;60.14;100489.44;5129092;27;1829;-75
2021/05/15 11:55:21;;;;;;;;;;;;;;;21.13;60.80;100477.47;5130717;27;1290;-76
2021/05/15 11:58:07;;;;;;;;;;;;;;;21.11;60.42;100460.88;5131014;27;923;-76
2021/05/15 12:00:53;;;;;;;;;;;;;;;21.10;60.60;100453.88;5113618;27;1961;-76
2021/05/15 12:03:38;;;;;;;;;;;;;;;21.08;60.69;100445.19;5110895;28;1130;-77
2021/05/15 12:06:25;;;;;;;;;;;;;;;21.07;61.01;100451.41;5095005;28;1291;-72
2021/05/15 12:09:12;;;;;;;;;;;;;;;21.16;61.83;100442.84;5095471;28;1091;-73
2021/05/15 12:12:02;;;;;;;;;;;;;;;21.30;60.84;100438.34;5110564;28;1289;-75
2021/05/15 12:14:55;;;;;;;;;;;;;;;21.30;60.31;100428.59;5094777;28;1109;-69
2021/05/15 12:17:41;;;;;;;;;;;;;;;21.36;60.60;100432.63;5124367;27;1682;-66
2021/05/15 12:20:27;;;;;;;;;;;;;;;21.35;60.14;100441.50;5130833;27;1227;-68
2021/05/15 12:23:17;;;;;;;;;;;;;;;21.35;60.45;100438.84;5131108;27;1013;-63
2021/05/15 12:26:03;;;;;;;;;;;;;;;21.38;60.24;100436.84;5130344;27;1357;-69
2021/05/15 12:28:49;;;;;;;;;;;;;;;21.40;60.17;100436.75;5130664;27;950;-67
2021/05/15 12:31:35;;;;;;;;;;;;;;;21.48;59.94;100429.06;5124395;27;1299;-70
2021/05/15 12:34:20;;;;;;;;;;;;;;;21.47;60.58;100437.97;5102271;27;1266;-73
2021/05/15 12:37:13;;;;;;;;;;;;;;;21.44;60.47;100441.69;5118592;27;1390;-70
2021/05/15 12:40:09;;;;;;;;;;;;;;;21.44;60.15;100427.59;5120696;27;1254;-68
2021/05/15 12:43:06;;;;;;;;;;;;;;;21.45;60.47;100434.59;5119603;27;1906;-66
2021/05/15 12:45:52;;;;;;;;;;;;;;;21.47;60.39;100427.38;5097719;27;1467;-74
2021/05/15 12:48:41;;;;;;;;;;;;;;;21.46;60.49;100431.00;5121530;27;1240;-74
2021/05/15 12:51:32;;;;;;;;;;;;;;;21.45;60.31;100426.63;5126215;27;1298;-74
2021/05/15 12:54:19;;;;;;;;;;;;;;;21.43;60.46;100433.88;5138438;27;1126;-73
2021/05/15 12:57:05;;;;;;;;;;;;;;;21.43;60.54;100415.31;5140504;27;1302;-74
2021/05/15 12:59:54;;;;;;;;;;;;;;;21.43;60.22;100418.78;5126208;27;1157;-75
2021/05/15 13:02:40;;;;;;;;;;;;;;;21.43;60.41;100426.75;5126268;27;1906;-76
2021/05/15 13:05:29;;;;;;;;;;;;;;;21.42;60.53;100422.41;5124067;27;1398;-74
2021/05/15 13:08:15;;;;;;;;;;;;;;;21.43;60.24;100420.63;5140443;27;1161;-73
2021/05/15 13:11:09;;;;;;;;;;;;;;;21.43;60.37;100418.78;5125494;27;1307;-73
2021/05/15 13:13:56;;;;;;;;;;;;;;;21.45;60.57;100426.63;5139678;27;1089;-72
2021/05/15 13:16:41;;;;;;;;;;;;;;;21.44;60.23;100420.50;5141210;27;1393;-73
2021/05/15 13:19:27;;;;;;;;;;;;;;;21.45;60.48;100421.34;5139352;27;1207;-73
2021/05/15 13:22:12;;;;;;;;;;;;;;;21.45;60.18;100424.00;5139399;27;1905;-73
2021/05/15 13:25:00;;;;;;;;;;;;;;;21.44;60.18;100420.50;5140962;27;1374;-73
2021/05/15 13:27:46;;;;;;;;;;;;;;;21.46;60.32;100407.16;5132679;27;1248;-73
2021/05/15 13:30:31;;;;;;;;;;;;;;;21.46;60.41;100404.50;5139143;27;1306;-73
2021/05/15 13:33:20;;;;;;;;;;;;;;;21.46;60.52;100402.66;5139940;27;1077;-71
2021/05/15 13:36:08;;;;;;;;;;;;;;;21.45;60.56;100405.44;5140600;27;1314;-72
2021/05/15 13:38:55;;;;;;;;;;;;;;;21.46;60.22;100409.78;5139175;27;1215;-74
2021/05/15 13:41:42;;;;;;;;;;;;;;;21.46;60.63;100397.38;5125406;27;1988;-73
2021/05/15 13:44:27;;;;;;;;;;;;;;;21.45;60.63;100394.84;5125243;27;1364;-73
2021/05/15 13:47:13;;;;;;;;;;;;;;;21.46;60.67;100392.06;5139574;27;1212;-72
2021/05/15 13:49:58;;;;;;;;;;;;;;;21.46;60.51;100393.91;5124839;27;1357;-72
2021/05/15 13:52:44;;;;;;;;;;;;;;;21.47;60.78;100387.63;5140634;27;1085;-72
2021/05/15 13:55:30;;;;;;;;;;;;;;;21.47;60.49;100382.31;5138769;27;1319;-72
2021/05/15 13:58:15;;;;;;;;;;;;;;;21.47;60.80;100387.63;5139231;27;1128;-73
2021/05/15 14:01:01;;;;;;;;;;;;;;;21.45;60.87;100382.44;5140040;27;1412;-74
2021/05/15 14:03:46;;;;;;;;;;;;;;;21.47;60.41;100377.03;5132197;27;1247;-73
2021/05/15 14:06:32;;;;;;;;;;;;;;;21.46;60.65;100385.94;5124382;27;1275;-73
2021/05/15 14:09:17;;;;;;;;;;;;;;;21.46;60.77;100378.81;5139524;27;1086;-72
2021/05/15 14:12:03;;;;;;;;;;;;;;;21.47;60.72;100371.72;5140288;27;1399;-73
2021/05/15 14:14:48;;;;;;;;;;;;;;;21.46;60.77;100378.81;5137984;27;1419;-73
2021/05/15 14:17:36;;;;;;;;;;;;;;;21.47;60.56;100377.03;5125223;27;1043;-74
2021/05/15 14:20:22;;;;;;;;;;;;;;;21.48;60.93;100376.06;5140132;27;1319;-74
2021/05/15 14:23:07;;;;;;;;;;;;;;;21.48;60.74;100378.72;5122359;27;1959;-73
2021/05/15 14:25:53;;;;;;;;;;;;;;;21.47;60.87;100371.72;5138785;27;1325;-72